Salem, OR

12:33 PM PST on December 06, 2016 (GMT -0800)
Center & Cordon NE | | Change Station

Elev 210 ft 44.94 °N, 122.96 °W | Updated 4 seconds ago

Overcast
Overcast
39.1 °F
Feels Like 35 °F
N
5.7
Wind Variable Wind from NNW
Gusts 8.0 mph

Today
High -- | Low -- °F
--% Chance of Precip.
Yesterday
High -- | Low -- °F
Precip. -- in
Pressure 30.13 in
Visibility 10.0 miles
Clouds Mostly Cloudy 1300 ft
Overcast 2600 ft
Windchill 35 °F
Dew Point 36 °F
Humidity 89%
Rainfall 0.07 in
Snow Depth Not available.
7:35 AM 4:30 PM
Waxing Crescent, 45% visible
METAR KSLE 061956Z 36009KT 10SM BKN013 OVC026 04/01 A3012 RMK AO2 SLP202 T00390006
Pressure 30.13 in
Visibility 10.0 miles
Clouds Mostly Cloudy 1300 ft
Overcast 2600 ft
Windchill 35 °F
Dew Point 36 °F
Humidity 89%
Rainfall 0.07 in
Snow Depth Not available.
7:35 AM 4:30 PM
Waxing Crescent, 45% visible
METAR KSLE 061956Z 36009KT 10SM BKN013 OVC026 04/01 A3012 RMK AO2 SLP202 T00390006

10-Day Weather Forecast

Almanac

Astronomy

Dec. 06, 2016 Rise Set
Actual Time
Civil Twilight
Nautical Twilight
Astronomical Twilight
Moon
Length of Visible Light
Length of Day
Tomorrow will be .
, % of the Moon is Illuminated

Today's Extremes

State Highs State Lows

Community

WunderPhotos

Upload Photos

1,956,024 photos uploaded!

WunderBlog® & News

Nearby

Air Quality

  Air Quality AQ Index Pollutant
Not available.

Snow Depth

Station Depth Elevation

Earthquake Activity

City Distance Mag. Time & Date
Minimum magnitude displayed is 2.5.

Coastal Water Temperatures

Place Temperature

Stations

Nearby Weather Stations

Station Location Temp. Windchill Dew Point Humidity Wind Precip. Elev Updated Type
                   

Watches & Warnings

There are currently no watches in effect.